Time;durP1;ratioP1;P1;durP2;ratioP2;P2;SDS_P1;SDS_P2;PMS_P1;PMS_P2;Temp;Humidity;BMP_temperature;BMP_pressure;BME280_temperature;BME280_humidity;BME280_pressure;Samples;Min_cycle;Max_cycle;Signal;HPM_P1;HPM_P2
2023/08/30 00:01:56;;;;;;;5.30;3.30;;;;;;;;;;7367664;19;20011;-70
2023/08/30 00:04:22;;;;;;;5.55;3.58;;;;;;;;;;7388536;19;20039;-70
2023/08/30 00:06:47;;;;;;;6.63;3.25;;;;;;;;;;7365777;19;20374;-70
2023/08/30 00:09:13;;;;;;;5.78;3.35;;;;;;;;;;7365853;19;20006;-71
2023/08/30 00:11:38;;;;;;;8.20;3.55;;;;;;;;;;7367604;19;20465;-70
2023/08/30 00:14:06;;;;;;;7.05;3.30;;;;;;;;;;7368043;19;20010;-70
2023/08/30 00:16:32;;;;;;;8.15;3.80;;;;;;;;;;7390418;19;20009;-71
2023/08/30 00:18:57;;;;;;;5.80;3.40;;;;;;;;;;7367517;19;20006;-70
2023/08/30 00:21:22;;;;;;;6.00;3.55;;;;;;;;;;7367989;19;20025;-70
2023/08/30 00:23:48;;;;;;;6.75;3.85;;;;;;;;;;7367019;19;20006;-71
2023/08/30 00:26:13;;;;;;;6.85;3.80;;;;;;;;;;7366783;19;20007;-71
2023/08/30 00:28:38;;;;;;;6.75;3.78;;;;;;;;;;7389472;19;20033;-71
2023/08/30 00:31:05;;;;;;;6.20;3.72;;;;;;;;;;7367146;19;20014;-70
2023/08/30 00:33:30;;;;;;;6.63;3.60;;;;;;;;;;7367232;19;20014;-70
2023/08/30 00:35:58;;;;;;;5.30;3.38;;;;;;;;;;7367144;19;20512;-70
2023/08/30 00:38:25;;;;;;;8.13;4.15;;;;;;;;;;7368768;19;20038;-70
2023/08/30 00:40:50;;;;;;;6.68;4.18;;;;;;;;;;7367722;19;20522;-70
2023/08/30 00:43:16;;;;;;;6.35;3.60;;;;;;;;;;7389114;19;19999;-70
2023/08/30 00:45:41;;;;;;;7.25;4.18;;;;;;;;;;7365918;19;20011;-71
2023/08/30 00:48:06;;;;;;;6.30;4.30;;;;;;;;;;7367326;19;20108;-70
2023/08/30 00:50:33;;;;;;;8.73;5.05;;;;;;;;;;7366370;19;20038;-71
2023/08/30 00:52:59;;;;;;;6.57;4.30;;;;;;;;;;7366863;19;20499;-69
2023/08/30 00:55:24;;;;;;;7.55;4.85;;;;;;;;;;7385539;19;20014;-71
2023/08/30 00:57:49;;;;;;;7.80;4.10;;;;;;;;;;7366376;19;20015;-70
2023/08/30 01:00:15;;;;;;;7.40;3.97;;;;;;;;;;7367696;19;20086;-70
2023/08/30 01:02:40;;;;;;;6.80;3.72;;;;;;;;;;7368957;19;20015;-70
2023/08/30 01:05:06;;;;;;;5.47;3.92;;;;;;;;;;7364434;19;22515;-71
2023/08/30 01:07:31;;;;;;;6.28;4.07;;;;;;;;;;7388189;19;20006;-71
2023/08/30 01:09:58;;;;;;;7.53;4.20;;;;;;;;;;7364038;19;20129;-70
2023/08/30 01:12:56;;;;;;;6.68;3.92;;;;;;;;;;7365682;19;20035;-71
2023/08/30 01:15:24;;;;;;;5.75;3.67;;;;;;;;;;7363111;19;20598;-71
2023/08/30 01:17:53;;;;;;;7.50;4.03;;;;;;;;;;7365788;19;20010;-71
2023/08/30 01:20:22;;;;;;;6.22;3.90;;;;;;;;;;7365473;19;20014;-71
2023/08/30 01:23:11;;;;;;;6.05;3.67;;;;;;;;;;7386880;19;20009;-70
2023/08/30 01:26:02;;;;;;;9.65;4.03;;;;;;;;;;7392495;19;20014;-70
2023/08/30 01:28:31;;;;;;;7.75;4.13;;;;;;;;;;7373648;19;20505;-70
2023/08/30 01:30:58;;;;;;;6.85;4.10;;;;;;;;;;7372757;19;20011;-71
2023/08/30 01:33:27;;;;;;;6.35;3.83;;;;;;;;;;7372416;19;20015;-71
2023/08/30 01:35:58;;;;;;;6.80;3.88;;;;;;;;;;7371210;19;20010;-70
2023/08/30 01:38:25;;;;;;;11.20;4.47;;;;;;;;;;7373832;19;20015;-71
2023/08/30 01:40:51;;;;;;;9.32;4.10;;;;;;;;;;7372661;19;20011;-71
2023/08/30 01:43:17;;;;;;;6.45;4.10;;;;;;;;;;7394860;19;20017;-70
2023/08/30 01:45:43;;;;;;;7.35;3.95;;;;;;;;;;7371484;19;20014;-71
2023/08/30 01:48:15;;;;;;;6.50;4.32;;;;;;;;;;7371761;19;20017;-71
2023/08/30 01:50:42;;;;;;;8.25;4.63;;;;;;;;;;7371945;19;20011;-71
2023/08/30 01:53:10;;;;;;;7.05;4.68;;;;;;;;;;7383391;19;20611;-70
2023/08/30 01:55:36;;;;;;;7.97;4.40;;;;;;;;;;7400415;19;20006;-70
2023/08/30 01:58:02;;;;;;;6.25;4.20;;;;;;;;;;7374788;19;20006;-71
2023/08/30 02:00:27;;;;;;;5.90;3.63;;;;;;;;;;7372539;19;20007;-70
2023/08/30 02:02:52;;;;;;;6.75;4.28;;;;;;;;;;7370874;19;20135;-71
2023/08/30 02:05:18;;;;;;;7.13;4.05;;;;;;;;;;7368554;19;20010;-70
2023/08/30 02:07:57;;;;;;;6.60;4.32;;;;;;;;;;7394691;19;20252;-71
2023/08/30 02:10:27;;;;;;;7.05;4.10;;;;;;;;;;7370270;19;20417;-72
2023/08/30 02:12:54;;;;;;;6.35;4.30;;;;;;;;;;7371894;19;20074;-71
2023/08/30 02:15:21;;;;;;;6.82;4.07;;;;;;;;;;7370600;19;20010;-70
2023/08/30 02:17:48;;;;;;;8.30;4.60;;;;;;;;;;7372281;19;20006;-70
2023/08/30 02:20:13;;;;;;;6.28;3.83;;;;;;;;;;7372753;19;20014;-71
2023/08/30 02:22:38;;;;;;;6.57;4.43;;;;;;;;;;7393624;19;20003;-70
2023/08/30 02:25:04;;;;;;;7.45;5.25;;;;;;;;;;7369039;19;20006;-71
2023/08/30 02:27:31;;;;;;;7.22;4.97;;;;;;;;;;7375752;19;20048;-72
2023/08/30 02:29:56;;;;;;;9.07;4.85;;;;;;;;;;7371619;19;20021;-70
2023/08/30 02:32:21;;;;;;;6.82;4.72;;;;;;;;;;7371197;19;20007;-71
2023/08/30 02:34:51;;;;;;;7.72;4.57;;;;;;;;;;7385254;19;20570;-70
2023/08/30 02:37:16;;;;;;;6.43;4.45;;;;;;;;;;7393224;19;20010;-71
2023/08/30 02:39:42;;;;;;;7.05;4.72;;;;;;;;;;7370344;19;20334;-71
2023/08/30 02:42:07;;;;;;;6.93;4.63;;;;;;;;;;7371276;19;20010;-71
2023/08/30 02:44:32;;;;;;;7.57;4.43;;;;;;;;;;7369486;19;20015;-70
2023/08/30 02:46:58;;;;;;;7.70;4.75;;;;;;;;;;7370866;19;20050;-70
2023/08/30 02:49:23;;;;;;;8.85;4.70;;;;;;;;;;7391673;19;20005;-70
2023/08/30 02:51:48;;;;;;;8.68;5.40;;;;;;;;;;7370533;19;20082;-70
2023/08/30 02:54:14;;;;;;;10.07;5.63;;;;;;;;;;7368696;19;20025;-71
2023/08/30 02:56:43;;;;;;;7.55;4.78;;;;;;;;;;7368548;19;20018;-71
2023/08/30 02:59:08;;;;;;;7.30;4.90;;;;;;;;;;7371608;19;20344;-70
2023/08/30 03:01:33;;;;;;;7.97;5.22;;;;;;;;;;7391236;19;20003;-71
2023/08/30 03:03:59;;;;;;;7.03;5.20;;;;;;;;;;7368822;19;20014;-70
2023/08/30 03:06:24;;;;;;;9.85;5.43;;;;;;;;;;7369067;19;20014;-70
2023/08/30 03:08:49;;;;;;;9.95;5.03;;;;;;;;;;7369075;19;20007;-70
2023/08/30 03:11:15;;;;;;;8.25;5.57;;;;;;;;;;7370381;19;20007;-70
2023/08/30 03:13:40;;;;;;;7.55;5.53;;;;;;;;;;7391087;19;20342;-70
2023/08/30 03:16:16;;;;;;;9.00;5.60;;;;;;;;;;7368301;19;20396;-70
2023/08/30 03:18:42;;;;;;;8.13;5.80;;;;;;;;;;7369874;19;20014;-70
2023/08/30 03:21:08;;;;;;;8.35;5.45;;;;;;;;;;7369510;19;20922;-70
2023/08/30 03:23:35;;;;;;;8.90;5.93;;;;;;;;;;7369690;19;20010;-71
2023/08/30 03:26:14;;;;;;;9.15;6.03;;;;;;;;;;7368627;19;20031;-70
2023/08/30 03:28:41;;;;;;;8.52;5.63;;;;;;;;;;7391527;19;20491;-70
2023/08/30 03:31:16;;;;;;;8.55;5.35;;;;;;;;;;7369303;19;20014;-71
2023/08/30 03:33:41;;;;;;;7.93;5.03;;;;;;;;;;7368554;19;20071;-71
2023/08/30 03:36:10;;;;;;;8.55;5.35;;;;;;;;;;7368323;19;20014;-70
2023/08/30 03:38:35;;;;;;;8.30;5.50;;;;;;;;;;7369248;19;20037;-69
2023/08/30 03:41:00;;;;;;;6.35;4.50;;;;;;;;;;7369344;19;20006;-71
2023/08/30 03:43:25;;;;;;;7.13;5.07;;;;;;;;;;7390177;19;20011;-71
2023/08/30 03:45:52;;;;;;;8.60;5.30;;;;;;;;;;7366275;19;20035;-70
2023/08/30 03:48:17;;;;;;;10.55;5.43;;;;;;;;;;7369318;19;20002;-71
2023/08/30 03:50:43;;;;;;;7.25;5.13;;;;;;;;;;7369466;19;20035;-70
2023/08/30 03:53:08;;;;;;;8.93;5.70;;;;;;;;;;7370567;19;20017;-70
2023/08/30 03:55:34;;;;;;;8.60;5.70;;;;;;;;;;7388204;19;19998;-73
2023/08/30 03:57:59;;;;;;;9.55;6.15;;;;;;;;;;7368398;19;20537;-70
2023/08/30 04:00:24;;;;;;;9.98;6.22;;;;;;;;;;7369276;19;20365;-70
2023/08/30 04:02:49;;;;;;;13.27;6.57;;;;;;;;;;7367050;19;20004;-70
2023/08/30 04:05:15;;;;;;;9.38;6.32;;;;;;;;;;7365153;19;20085;-70
2023/08/30 04:07:40;;;;;;;9.15;6.13;;;;;;;;;;7389598;19;20118;-70
2023/08/30 04:10:07;;;;;;;9.98;5.88;;;;;;;;;;7367394;19;20139;-70
2023/08/30 04:12:33;;;;;;;11.75;6.22;;;;;;;;;;7368102;19;20022;-70
2023/08/30 04:14:59;;;;;;;10.88;5.95;;;;;;;;;;7366392;19;20090;-70
2023/08/30 04:17:24;;;;;;;10.38;6.20;;;;;;;;;;7368378;19;20066;-70
2023/08/30 04:19:52;;;;;;;8.60;6.40;;;;;;;;;;7367549;19;20007;-70
2023/08/30 04:22:18;;;;;;;10.63;6.32;;;;;;;;;;7388973;19;20013;-69
2023/08/30 04:24:44;;;;;;;12.48;6.47;;;;;;;;;;7363920;19;20006;-70
2023/08/30 04:27:09;;;;;;;9.48;5.80;;;;;;;;;;7366633;19;20076;-71
2023/08/30 04:29:34;;;;;;;9.45;5.80;;;;;;;;;;7367934;19;20405;-70
2023/08/30 04:32:00;;;;;;;12.45;6.60;;;;;;;;;;7367511;19;20006;-70
2023/08/30 04:34:26;;;;;;;9.52;6.50;;;;;;;;;;7387183;19;20011;-70
2023/08/30 04:36:51;;;;;;;9.45;5.82;;;;;;;;;;7366184;19;20496;-70
2023/08/30 04:39:16;;;;;;;8.60;6.22;;;;;;;;;;7367280;19;20472;-71
2023/08/30 04:41:42;;;;;;;9.10;5.80;;;;;;;;;;7366081;19;20735;-70
2023/08/30 04:44:07;;;;;;;9.32;6.00;;;;;;;;;;7366297;19;20004;-70
2023/08/30 04:46:32;;;;;;;9.80;6.03;;;;;;;;;;7385158;19;20081;-70
2023/08/30 04:48:58;;;;;;;10.98;6.10;;;;;;;;;;7364054;19;20017;-69
2023/08/30 04:51:23;;;;;;;9.95;6.63;;;;;;;;;;7366497;19;20384;-70
2023/08/30 04:53:48;;;;;;;9.52;6.38;;;;;;;;;;7367256;19;20006;-69
2023/08/30 04:56:14;;;;;;;8.80;5.95;;;;;;;;;;7365668;19;20806;-71
2023/08/30 04:58:40;;;;;;;9.07;6.03;;;;;;;;;;7389153;19;20014;-74
2023/08/30 05:01:06;;;;;;;10.07;6.55;;;;;;;;;;7365051;19;20020;-69
2023/08/30 05:03:32;;;;;;;11.30;6.40;;;;;;;;;;7366163;19;20447;-70
2023/08/30 05:05:57;;;;;;;9.48;6.05;;;;;;;;;;7364455;19;20003;-69
2023/08/30 05:08:22;;;;;;;10.40;6.50;;;;;;;;;;7366135;19;20014;-69
2023/08/30 05:10:48;;;;;;;10.77;6.10;;;;;;;;;;7372208;19;20035;-69
2023/08/30 05:13:16;;;;;;;9.23;6.40;;;;;;;;;;7388455;19;20509;-69
2023/08/30 05:15:41;;;;;;;9.15;6.50;;;;;;;;;;7364746;19;20011;-69
2023/08/30 05:18:06;;;;;;;20.50;10.93;;;;;;;;;;7369535;19;20543;-70
2023/08/30 05:20:32;;;;;;;15.57;11.10;;;;;;;;;;7364758;19;20010;-69
2023/08/30 05:22:57;;;;;;;14.85;9.52;;;;;;;;;;7365774;19;20010;-69
2023/08/30 05:25:22;;;;;;;10.02;7.25;;;;;;;;;;7385224;19;20002;-70
2023/08/30 05:27:48;;;;;;;10.57;7.10;;;;;;;;;;7365403;19;20011;-70
2023/08/30 05:30:13;;;;;;;11.38;6.82;;;;;;;;;;7366192;19;20018;-70
2023/08/30 05:32:38;;;;;;;10.13;6.57;;;;;;;;;;7366262;19;20014;-70
2023/08/30 05:35:04;;;;;;;12.20;6.53;;;;;;;;;;7363276;19;20011;-70
2023/08/30 05:37:29;;;;;;;9.93;6.55;;;;;;;;;;7388849;19;20002;-70
2023/08/30 05:39:56;;;;;;;11.45;6.82;;;;;;;;;;7365968;19;20015;-73
2023/08/30 05:42:22;;;;;;;8.57;5.95;;;;;;;;;;7366336;19;20015;-72
2023/08/30 05:44:47;;;;;;;9.93;6.45;;;;;;;;;;7364294;19;20036;-70
2023/08/30 05:47:14;;;;;;;8.68;5.68;;;;;;;;;;7365941;19;20026;-70
2023/08/30 05:49:40;;;;;;;9.25;5.68;;;;;;;;;;7386870;19;20385;-70
2023/08/30 05:52:05;;;;;;;10.55;6.63;;;;;;;;;;7365668;19;20102;-70
2023/08/30 05:54:31;;;;;;;9.55;6.45;;;;;;;;;;7363285;19;20026;-70
2023/08/30 05:56:56;;;;;;;11.30;6.63;;;;;;;;;;7365756;19;20010;-70
2023/08/30 05:59:22;;;;;;;11.48;6.45;;;;;;;;;;7370751;19;20531;-70
2023/08/30 06:01:47;;;;;;;9.75;6.45;;;;;;;;;;7392843;19;19998;-70
2023/08/30 06:04:13;;;;;;;9.88;5.90;;;;;;;;;;7381534;19;20003;-69
2023/08/30 06:06:38;;;;;;;9.27;6.38;;;;;;;;;;7364652;19;20559;-69
2023/08/30 06:09:04;;;;;;;9.88;6.18;;;;;;;;;;7370334;19;20081;-70
2023/08/30 06:11:29;;;;;;;8.60;6.00;;;;;;;;;;7371493;19;20007;-70
2023/08/30 06:13:54;;;;;;;9.02;5.97;;;;;;;;;;7371258;19;20006;-70
2023/08/30 06:16:20;;;;;;;7.95;5.55;;;;;;;;;;7392595;19;20062;-70
2023/08/30 06:18:45;;;;;;;9.02;5.53;;;;;;;;;;7371259;19;20014;-71
2023/08/30 06:21:10;;;;;;;8.60;5.45;;;;;;;;;;7371546;19;20005;-71
2023/08/30 06:23:38;;;;;;;8.38;5.38;;;;;;;;;;7371415;19;20006;-70
2023/08/30 06:26:03;;;;;;;12.50;6.03;;;;;;;;;;7369673;19;20006;-72
2023/08/30 06:28:28;;;;;;;8.30;5.15;;;;;;;;;;7393827;19;19995;-70
2023/08/30 06:30:53;;;;;;;7.65;4.78;;;;;;;;;;7370818;19;20021;-70
2023/08/30 06:33:19;;;;;;;7.72;4.60;;;;;;;;;;7371101;19;20017;-69
2023/08/30 06:35:47;;;;;;;7.13;4.32;;;;;;;;;;7368469;19;20007;-70
2023/08/30 06:38:13;;;;;;;6.97;4.88;;;;;;;;;;7370660;19;20002;-69
2023/08/30 06:40:44;;;;;;;8.45;4.82;;;;;;;;;;7393996;19;19998;-70
2023/08/30 06:43:10;;;;;;;8.10;4.78;;;;;;;;;;7372898;19;20006;-70
2023/08/30 06:45:35;;;;;;;8.23;4.70;;;;;;;;;;7368833;19;20002;-70
2023/08/30 06:48:00;;;;;;;7.75;4.60;;;;;;;;;;7370604;19;20010;-70
2023/08/30 06:50:26;;;;;;;7.70;4.68;;;;;;;;;;7369223;19;20006;-70
2023/08/30 06:52:51;;;;;;;7.28;4.53;;;;;;;;;;7370866;19;20335;-70
2023/08/30 06:55:16;;;;;;;7.57;4.30;;;;;;;;;;7388742;19;20011;-70
2023/08/30 06:57:49;;;;;;;7.38;4.50;;;;;;;;;;7370931;19;20176;-71
2023/08/30 07:00:14;;;;;;;7.00;4.65;;;;;;;;;;7370634;19;20349;-70
2023/08/30 07:02:40;;;;;;;6.38;4.20;;;;;;;;;;7368309;19;20006;-70
2023/08/30 07:05:06;;;;;;;7.10;4.70;;;;;;;;;;7368112;19;20028;-69
2023/08/30 07:07:31;;;;;;;13.80;9.80;;;;;;;;;;7392575;19;19995;-69
2023/08/30 07:09:57;;;;;;;8.80;6.18;;;;;;;;;;7368103;19;20369;-69
2023/08/30 07:12:22;;;;;;;8.23;4.72;;;;;;;;;;7370333;19;20438;-70
2023/08/30 07:14:47;;;;;;;12.50;5.07;;;;;;;;;;7366887;19;20014;-69
2023/08/30 07:17:13;;;;;;;10.20;5.10;;;;;;;;;;7370497;19;20029;-69
2023/08/30 07:19:39;;;;;;;8.27;5.05;;;;;;;;;;7389536;19;20326;-70
2023/08/30 07:22:04;;;;;;;9.23;5.13;;;;;;;;;;7369828;19;20243;-70
2023/08/30 07:24:29;;;;;;;7.05;4.88;;;;;;;;;;7367578;19;20360;-70
2023/08/30 07:26:55;;;;;;;7.05;5.32;;;;;;;;;;7370490;19;20011;-69
2023/08/30 07:29:20;;;;;;;8.18;5.05;;;;;;;;;;7369185;19;20017;-69
2023/08/30 07:31:45;;;;;;;9.30;5.18;;;;;;;;;;7392059;19;20362;-71
2023/08/30 07:34:11;;;;;;;6.32;4.43;;;;;;;;;;7368427;19;20111;-69
2023/08/30 07:36:36;;;;;;;8.10;5.10;;;;;;;;;;7368253;19;20018;-69
2023/08/30 07:39:03;;;;;;;8.18;4.65;;;;;;;;;;7369097;19;20015;-70
2023/08/30 07:41:28;;;;;;;7.57;5.15;;;;;;;;;;7369587;19;20108;-70
2023/08/30 07:43:53;;;;;;;7.22;5.13;;;;;;;;;;7368465;19;20018;-70
2023/08/30 07:46:19;;;;;;;9.07;5.10;;;;;;;;;;7390330;19;20027;-71
2023/08/30 07:48:44;;;;;;;8.30;5.20;;;;;;;;;;7369145;19;20011;-71
2023/08/30 07:51:09;;;;;;;7.10;5.07;;;;;;;;;;7367223;19;20015;-71
2023/08/30 07:53:35;;;;;;;7.90;5.18;;;;;;;;;;7368010;19;20014;-71
2023/08/30 07:56:00;;;;;;;7.60;4.75;;;;;;;;;;7366962;19;20122;-71
2023/08/30 07:58:25;;;;;;;6.90;4.88;;;;;;;;;;7390083;19;20006;-71
2023/08/30 08:00:52;;;;;;;8.50;5.25;;;;;;;;;;7366279;19;20006;-71
2023/08/30 08:03:17;;;;;;;8.07;4.90;;;;;;;;;;7368267;19;20007;-72
2023/08/30 08:05:43;;;;;;;6.28;4.18;;;;;;;;;;7366808;19;20026;-71
2023/08/30 08:08:10;;;;;;;7.75;4.95;;;;;;;;;;7369965;19;20014;-70
2023/08/30 08:10:36;;;;;;;8.82;4.93;;;;;;;;;;7388341;19;19999;-70
2023/08/30 08:13:01;;;;;;;8.45;5.72;;;;;;;;;;7367477;19;20072;-71
2023/08/30 08:15:30;;;;;;;8.73;4.93;;;;;;;;;;7366527;19;20192;-70
2023/08/30 08:17:55;;;;;;;7.72;4.65;;;;;;;;;;7368794;19;20774;-70
2023/08/30 08:20:21;;;;;;;8.77;5.10;;;;;;;;;;7368861;19;20023;-70
2023/08/30 08:22:46;;;;;;;19.83;15.38;;;;;;;;;;7389860;19;19995;-70
2023/08/30 08:25:12;;;;;;;6.75;4.43;;;;;;;;;;7365361;19;20070;-69
2023/08/30 08:27:37;;;;;;;7.25;4.97;;;;;;;;;;7367398;19;20703;-69
2023/08/30 08:30:04;;;;;;;6.97;4.85;;;;;;;;;;7366296;19;20035;-70
2023/08/30 08:32:30;;;;;;;6.80;4.47;;;;;;;;;;7368206;19;20493;-69
2023/08/30 08:34:56;;;;;;;7.28;4.85;;;;;;;;;;7365267;19;20010;-70
2023/08/30 08:37:21;;;;;;;12.52;5.10;;;;;;;;;;7389376;19;20051;-69
2023/08/30 08:39:47;;;;;;;7.70;4.65;;;;;;;;;;7366758;19;20396;-69
2023/08/30 08:42:13;;;;;;;8.88;4.65;;;;;;;;;;7368353;19;20010;-71
2023/08/30 08:44:40;;;;;;;11.90;4.97;;;;;;;;;;7365556;19;20003;-69
2023/08/30 08:47:05;;;;;;;8.68;5.18;;;;;;;;;;7367833;19;20002;-70
2023/08/30 08:49:31;;;;;;;8.85;4.78;;;;;;;;;;7389323;19;20712;-70
2023/08/30 08:51:57;;;;;;;7.50;4.93;;;;;;;;;;7366760;19;20113;-70
2023/08/30 08:54:22;;;;;;;8.85;5.15;;;;;;;;;;7365629;19;20442;-69
2023/08/30 08:56:48;;;;;;;8.75;5.00;;;;;;;;;;7365823;19;20086;-69
2023/08/30 08:59:14;;;;;;;9.65;5.38;;;;;;;;;;7366605;19;20007;-70
2023/08/30 09:01:39;;;;;;;7.63;4.70;;;;;;;;;;7388306;19;20415;-70
2023/08/30 09:04:10;;;;;;;8.13;4.68;;;;;;;;;;7365434;19;20031;-70
2023/08/30 09:06:37;;;;;;;7.65;5.18;;;;;;;;;;7366291;19;20038;-71
2023/08/30 09:09:03;;;;;;;6.55;4.68;;;;;;;;;;7367059;19;20006;-70
2023/08/30 09:11:29;;;;;;;10.55;5.68;;;;;;;;;;7365794;19;20384;-70
2023/08/30 09:13:54;;;;;;;7.18;4.90;;;;;;;;;;7365483;19;20066;-69
2023/08/30 09:16:20;;;;;;;7.18;5.00;;;;;;;;;;7387305;19;20001;-69
2023/08/30 09:18:57;;;;;;;7.93;4.85;;;;;;;;;;7365271;19;20015;-69
2023/08/30 09:21:22;;;;;;;7.78;5.10;;;;;;;;;;7365726;19;20278;-69
2023/08/30 09:23:56;;;;;;;8.20;5.15;;;;;;;;;;7366323;19;20027;-68
2023/08/30 09:26:22;;;;;;;8.32;5.15;;;;;;;;;;7365877;19;20010;-70
2023/08/30 09:28:47;;;;;;;7.35;4.75;;;;;;;;;;7382586;19;19999;-70
2023/08/30 09:31:21;;;;;;;8.15;5.32;;;;;;;;;;7377729;19;20013;-69
2023/08/30 09:33:49;;;;;;;7.15;4.70;;;;;;;;;;7365762;19;20002;-69
2023/08/30 09:36:15;;;;;;;8.25;4.95;;;;;;;;;;7364247;19;20563;-70
2023/08/30 09:38:40;;;;;;;7.47;4.97;;;;;;;;;;7366549;19;20006;-69
2023/08/30 09:41:06;;;;;;;8.63;5.03;;;;;;;;;;7366145;19;19998;-69
2023/08/30 09:43:34;;;;;;;8.23;5.05;;;;;;;;;;7392699;19;20006;-68
2023/08/30 09:46:06;;;;;;;6.85;4.57;;;;;;;;;;7371074;19;20036;-69
2023/08/30 09:48:32;;;;;;;7.00;4.18;;;;;;;;;;7371855;19;20571;-68
2023/08/30 09:50:59;;;;;;;7.03;3.88;;;;;;;;;;7371743;19;20040;-69
2023/08/30 09:53:28;;;;;;;9.65;6.55;;;;;;;;;;7372873;19;20106;-69
2023/08/30 09:55:54;;;;;;;7.88;4.40;;;;;;;;;;7370881;19;20003;-70
2023/08/30 09:58:21;;;;;;;7.38;4.30;;;;;;;;;;7394548;19;19998;-70
2023/08/30 10:00:46;;;;;;;6.22;3.75;;;;;;;;;;7365316;19;20031;-70
2023/08/30 10:03:12;;;;;;;5.97;3.40;;;;;;;;;;7372982;19;20003;-71
2023/08/30 10:05:39;;;;;;;8.02;3.60;;;;;;;;;;7368591;19;20006;-69
2023/08/30 10:08:07;;;;;;;6.32;4.30;;;;;;;;;;7377699;19;20014;-69
2023/08/30 10:10:33;;;;;;;5.95;4.22;;;;;;;;;;7398015;19;20015;-70
2023/08/30 10:13:00;;;;;;;6.78;4.38;;;;;;;;;;7380376;19;20025;-70
2023/08/30 10:15:26;;;;;;;7.47;4.13;;;;;;;;;;7373336;19;20041;-70
2023/08/30 10:17:54;;;;;;;8.63;5.10;;;;;;;;;;7372788;19;20038;-70
2023/08/30 10:20:19;;;;;;;6.78;4.55;;;;;;;;;;7372021;19;20152;-70
2023/08/30 10:22:48;;;;;;;8.50;4.40;;;;;;;;;;7395240;19;20082;-70
2023/08/30 10:25:19;;;;;;;8.07;3.30;;;;;;;;;;7369264;19;20394;-70
2023/08/30 10:27:47;;;;;;;6.18;3.28;;;;;;;;;;7372311;19;20007;-70
2023/08/30 10:30:13;;;;;;;5.03;3.10;;;;;;;;;;7371420;19;20696;-70
2023/08/30 10:32:40;;;;;;;7.68;3.53;;;;;;;;;;7373236;19;20070;-70
2023/08/30 10:35:05;;;;;;;8.00;3.90;;;;;;;;;;7369103;19;20007;-69
2023/08/30 10:37:30;;;;;;;6.13;4.03;;;;;;;;;;7395128;19;20007;-69
2023/08/30 10:40:03;;;;;;;5.45;3.80;;;;;;;;;;7371352;19;20027;-70
2023/08/30 10:42:28;;;;;;;6.18;3.75;;;;;;;;;;7372245;19;20010;-70
2023/08/30 10:44:59;;;;;;;5.57;2.95;;;;;;;;;;7370542;19;20566;-70
2023/08/30 10:47:29;;;;;;;4.05;2.60;;;;;;;;;;7371956;19;20011;-70
2023/08/30 10:49:55;;;;;;;4.57;2.58;;;;;;;;;;7371712;19;20017;-69
2023/08/30 10:52:21;;;;;;;4.28;2.38;;;;;;;;;;7392385;19;20007;-70
2023/08/30 10:54:46;;;;;;;5.18;2.50;;;;;;;;;;7367792;19;20032;-70
2023/08/30 10:57:14;;;;;;;4.65;2.60;;;;;;;;;;7372544;19;20384;-69
2023/08/30 10:59:40;;;;;;;10.63;6.45;;;;;;;;;;7371462;19;20011;-69
2023/08/30 11:02:06;;;;;;;7.28;4.47;;;;;;;;;;7369924;19;20014;-71
2023/08/30 11:04:32;;;;;;;6.00;2.95;;;;;;;;;;7389669;19;20522;-70
2023/08/30 11:06:57;;;;;;;4.60;2.85;;;;;;;;;;7370581;19;20010;-70
2023/08/30 11:09:24;;;;;;;7.38;2.80;;;;;;;;;;7370162;19;20015;-71
2023/08/30 11:11:50;;;;;;;6.28;2.80;;;;;;;;;;7369412;19;20014;-70
2023/08/30 11:14:17;;;;;;;5.05;2.92;;;;;;;;;;7371165;19;20108;-69
2023/08/30 11:16:43;;;;;;;5.80;3.50;;;;;;;;;;7391839;19;20003;-70
2023/08/30 11:19:10;;;;;;;6.43;3.53;;;;;;;;;;7369499;19;20639;-70
2023/08/30 11:21:45;;;;;;;6.13;3.42;;;;;;;;;;7368978;19;20045;-69
2023/08/30 11:24:12;;;;;;;6.35;3.83;;;;;;;;;;7369035;19;20011;-70
2023/08/30 11:26:37;;;;;;;8.57;3.72;;;;;;;;;;7369303;19;20007;-70
2023/08/30 11:29:07;;;;;;;6.13;3.60;;;;;;;;;;7369826;19;20074;-70
2023/08/30 11:31:32;;;;;;;6.87;4.20;;;;;;;;;;7393010;19;20085;-70
2023/08/30 11:33:59;;;;;;;6.93;3.88;;;;;;;;;;7368678;19;20010;-70
2023/08/30 11:36:36;;;;;;;7.78;3.55;;;;;;;;;;7368892;19;20480;-70
2023/08/30 11:39:02;;;;;;;5.68;3.03;;;;;;;;;;7369193;19;20013;-70
2023/08/30 11:41:27;;;;;;;5.00;2.88;;;;;;;;;;7369216;19;20068;-70
2023/08/30 11:43:54;;;;;;;6.25;2.95;;;;;;;;;;7368835;19;20105;-69
2023/08/30 11:46:20;;;;;;;6.55;3.40;;;;;;;;;;7390068;19;20006;-70
2023/08/30 11:48:47;;;;;;;6.75;4.07;;;;;;;;;;7369648;19;20013;-69
2023/08/30 11:51:13;;;;;;;6.70;3.10;;;;;;;;;;7369294;19;20346;-70
2023/08/30 11:53:39;;;;;;;5.20;2.75;;;;;;;;;;7369194;19;20021;-70
2023/08/30 11:56:07;;;;;;;7.43;2.60;;;;;;;;;;7368005;19;20078;-69
2023/08/30 11:58:34;;;;;;;5.63;2.80;;;;;;;;;;7391011;19;20002;-70
2023/08/30 12:00:59;;;;;;;5.70;2.92;;;;;;;;;;7369208;19;20017;-69
2023/08/30 12:03:29;;;;;;;6.07;2.80;;;;;;;;;;7367547;19;20022;-70
2023/08/30 12:05:54;;;;;;;6.50;2.47;;;;;;;;;;7366782;19;20010;-69
2023/08/30 12:08:22;;;;;;;4.82;2.55;;;;;;;;;;7368601;19;20018;-70
2023/08/30 12:10:48;;;;;;;4.22;2.60;;;;;;;;;;7375535;19;20013;-69
2023/08/30 12:13:39;;;;;;;4.03;2.55;;;;;;;;;;7386167;19;20002;-70
2023/08/30 12:16:05;;;;;;;4.07;2.42;;;;;;;;;;7366792;19;20010;-70
2023/08/30 12:18:32;;;;;;;5.38;2.58;;;;;;;;;;7368527;19;20015;-69
2023/08/30 12:20:59;;;;;;;5.97;3.20;;;;;;;;;;7369628;19;20384;-69
2023/08/30 12:23:30;;;;;;;4.95;2.72;;;;;;;;;;7370259;19;20031;-70
2023/08/30 12:26:04;;;;;;;4.53;2.55;;;;;;;;;;7368393;19;20426;-70
2023/08/30 12:28:30;;;;;;;4.65;2.65;;;;;;;;;;7390986;19;20007;-68
2023/08/30 12:30:56;;;;;;;5.00;2.78;;;;;;;;;;7366341;19;20015;-69
2023/08/30 12:33:21;;;;;;;4.60;2.65;;;;;;;;;;7368114;19;20021;-69
2023/08/30 12:35:47;;;;;;;6.00;2.58;;;;;;;;;;7367330;19;20411;-69
2023/08/30 12:38:17;;;;;;;6.97;2.88;;;;;;;;;;7367893;19;20007;-69
2023/08/30 12:40:43;;;;;;;6.43;2.88;;;;;;;;;;7390681;19;20377;-69
2023/08/30 12:43:08;;;;;;;4.90;2.75;;;;;;;;;;7367971;19;20015;-69
2023/08/30 12:45:33;;;;;;;6.47;3.30;;;;;;;;;;7366491;19;20043;-70
2023/08/30 12:47:58;;;;;;;5.28;3.05;;;;;;;;;;7367986;19;20023;-69
2023/08/30 12:50:24;;;;;;;6.83;3.23;;;;;;;;;;7367305;19;20023;-70
2023/08/30 12:52:49;;;;;;;4.43;2.72;;;;;;;;;;7366135;19;20243;-70
2023/08/30 12:55:16;;;;;;;7.70;2.90;;;;;;;;;;7387055;19;20010;-71
2023/08/30 12:57:41;;;;;;;5.68;3.03;;;;;;;;;;7368018;19;20131;-70
2023/08/30 13:00:07;;;;;;;5.47;3.30;;;;;;;;;;7367203;19;20487;-70
2023/08/30 13:02:32;;;;;;;5.22;2.90;;;;;;;;;;7365637;19;20107;-70
2023/08/30 13:04:58;;;;;;;4.90;2.92;;;;;;;;;;7364874;19;20002;-69
2023/08/30 13:07:24;;;;;;;5.18;3.15;;;;;;;;;;7388025;19;20003;-69
2023/08/30 13:09:49;;;;;;;7.22;3.63;;;;;;;;;;7365191;19;20006;-69
2023/08/30 13:12:15;;;;;;;6.57;3.42;;;;;;;;;;7365501;19;20565;-69
2023/08/30 13:14:40;;;;;;;8.07;5.25;;;;;;;;;;7365080;19;20010;-69
2023/08/30 13:17:05;;;;;;;7.85;4.97;;;;;;;;;;7367252;19;20031;-70
2023/08/30 13:19:31;;;;;;;7.00;3.70;;;;;;;;;;7397104;19;20010;-70
2023/08/30 13:21:56;;;;;;;5.68;3.00;;;;;;;;;;7373635;19;20019;-69
2023/08/30 13:24:22;;;;;;;5.30;3.08;;;;;;;;;;7371028;19;20358;-69
2023/08/30 13:26:47;;;;;;;7.45;3.17;;;;;;;;;;7372877;19;20029;-70
2023/08/30 13:29:12;;;;;;;5.70;3.22;;;;;;;;;;7373515;19;20048;-69
2023/08/30 13:31:38;;;;;;;5.95;3.03;;;;;;;;;;7396084;19;20005;-70
2023/08/30 13:34:03;;;;;;;9.48;3.20;;;;;;;;;;7372433;19;20010;-69
2023/08/30 13:36:29;;;;;;;6.30;3.05;;;;;;;;;;7371988;19;20007;-69
2023/08/30 13:38:54;;;;;;;5.68;2.83;;;;;;;;;;7373103;19;20014;-70
2023/08/30 13:41:19;;;;;;;5.60;3.13;;;;;;;;;;7373952;19;20487;-69
2023/08/30 13:43:45;;;;;;;6.40;3.20;;;;;;;;;;7393683;19;20384;-69
2023/08/30 13:46:10;;;;;;;8.02;3.25;;;;;;;;;;7373050;19;20066;-70
2023/08/30 13:48:36;;;;;;;5.30;3.08;;;;;;;;;;7374806;19;20009;-70
2023/08/30 13:51:01;;;;;;;7.60;3.15;;;;;;;;;;7371134;19;20024;-69
2023/08/30 13:53:27;;;;;;;5.20;3.05;;;;;;;;;;7371298;19;20043;-70
2023/08/30 13:55:53;;;;;;;5.43;2.90;;;;;;;;;;7372398;19;20331;-72
2023/08/30 13:58:18;;;;;;;5.68;2.92;;;;;;;;;;7394686;19;20006;-70
2023/08/30 14:00:44;;;;;;;7.22;3.00;;;;;;;;;;7372588;19;20446;-70
2023/08/30 14:03:10;;;;;;;6.43;3.00;;;;;;;;;;7371607;19;20394;-70
2023/08/30 14:05:35;;;;;;;4.80;2.75;;;;;;;;;;7370465;19;20135;-72
2023/08/30 14:08:00;;;;;;;5.90;2.72;;;;;;;;;;7371818;19;20022;-70
2023/08/30 14:10:26;;;;;;;5.18;2.88;;;;;;;;;;7393015;19;19999;-70
2023/08/30 14:12:51;;;;;;;4.20;2.75;;;;;;;;;;7372023;19;20013;-69
2023/08/30 14:15:17;;;;;;;8.80;2.90;;;;;;;;;;7371136;19;20014;-70
2023/08/30 14:17:43;;;;;;;5.72;2.60;;;;;;;;;;7377587;19;20552;-69
2023/08/30 14:20:09;;;;;;;6.95;2.85;;;;;;;;;;7378147;19;20010;-70
2023/08/30 14:22:34;;;;;;;6.50;2.85;;;;;;;;;;7401661;19;20007;-70
2023/08/30 14:24:59;;;;;;;6.05;3.00;;;;;;;;;;7370318;19;20006;-70
2023/08/30 14:27:25;;;;;;;6.05;2.50;;;;;;;;;;7371536;19;20017;-70
2023/08/30 14:29:50;;;;;;;7.95;2.70;;;;;;;;;;7371002;19;20006;-70
2023/08/30 14:32:16;;;;;;;5.43;2.22;;;;;;;;;;7372362;19;20030;-70
2023/08/30 14:34:41;;;;;;;5.03;2.60;;;;;;;;;;7391267;19;20004;-70
2023/08/30 14:37:06;;;;;;;8.65;3.05;;;;;;;;;;7371233;19;20014;-70